Time;durP1;ratioP1;P1;durP2;ratioP2;P2;SDS_P1;SDS_P2;PMS_P1;PMS_P2;Temp;Humidity;BMP_temperature;BMP_pressure;BME280_temperature;BME280_humidity;BME280_pressure;Samples;Min_cycle;Max_cycle;Signal;HPM_P1;HPM_P2
2023/09/28 00:01:17;;;;;;;;;12.00;9.00;;;;;;;;5131926;27;8781;-79
2023/09/28 00:03:43;;;;;;;;;8.25;8.25;;;;;;;;5131152;27;10110;-79
2023/09/28 00:06:08;;;;;;;;;9.75;8.75;;;;;;;;5121880;27;8826;-79
2023/09/28 00:08:33;;;;;;;;;9.00;8.00;;;;;;;;5122511;27;8870;-79
2023/09/28 00:10:59;;;;;;;;;10.33;7.67;;;;;;;;5126824;27;8864;-79
2023/09/28 00:13:24;;;;;;;;;9.00;8.75;;;;;;;;5128109;27;10012;-79
2023/09/28 00:15:49;;;;;;;;;8.00;7.75;;;;;;;;5125886;27;9053;-79
2023/09/28 00:18:15;;;;;;;;;7.75;6.50;;;;;;;;5142338;27;8792;-79
2023/09/28 00:20:40;;;;;;;;;14.00;10.25;;;;;;;;5134615;27;8802;-79
2023/09/28 00:23:05;;;;;;;;;11.25;9.25;;;;;;;;5122899;28;8893;-79
2023/09/28 00:25:30;;;;;;;;;6.50;6.25;;;;;;;;5129536;27;8800;-79
2023/09/28 00:27:56;;;;;;;;;7.25;6.00;;;;;;;;5142345;27;8937;-79
2023/09/28 00:30:22;;;;;;;;;9.25;7.25;;;;;;;;5136679;27;8793;-79
2023/09/28 00:32:52;;;;;;;;;4.75;4.75;;;;;;;;5127789;27;10086;-79
2023/09/28 00:35:17;;;;;;;;;10.00;9.50;;;;;;;;5129810;27;9967;-80
2023/09/28 00:37:43;;;;;;;;;10.00;8.50;;;;;;;;5132641;27;9543;-79
2023/09/28 00:40:27;;;;;;;;;9.67;7.33;;;;;;;;5135370;27;8828;-79
2023/09/28 00:42:53;;;;;;;;;8.75;6.00;;;;;;;;5141384;27;10121;-79
2023/09/28 00:45:20;;;;;;;;;8.75;5.00;;;;;;;;5135335;27;9638;-79
2023/09/28 00:47:48;;;;;;;;;6.25;5.00;;;;;;;;5122025;27;8755;-79
2023/09/28 00:50:17;;;;;;;;;9.75;7.00;;;;;;;;5121235;27;10640;-79
2023/09/28 00:52:43;;;;;;;;;7.25;6.00;;;;;;;;5119601;28;10159;-79
2023/09/28 00:55:10;;;;;;;;;7.75;7.00;;;;;;;;5129598;27;9718;-79
2023/09/28 00:57:35;;;;;;;;;7.00;5.25;;;;;;;;5140634;27;9811;-79
2023/09/28 01:00:18;;;;;;;;;7.25;5.50;;;;;;;;5131986;27;9787;-79
2023/09/28 01:02:43;;;;;;;;;6.50;4.75;;;;;;;;5121866;27;8784;-79
2023/09/28 01:05:08;;;;;;;;;7.25;6.25;;;;;;;;5129101;27;9603;-79
2023/09/28 01:07:33;;;;;;;;;5.00;5.00;;;;;;;;5142940;27;8769;-79
2023/09/28 01:09:59;;;;;;;;;10.25;6.75;;;;;;;;5127900;27;8838;-79
2023/09/28 01:12:25;;;;;;;;;6.00;5.00;;;;;;;;5119743;28;9944;-79
2023/09/28 01:14:53;;;;;;;;;6.75;4.75;;;;;;;;5125529;27;8781;-79
2023/09/28 01:17:18;;;;;;;;;9.00;6.25;;;;;;;;5140959;27;8761;-79
2023/09/28 01:19:44;;;;;;;;;5.50;5.50;;;;;;;;5137771;27;9777;-79
2023/09/28 01:22:13;;;;;;;;;4.50;4.50;;;;;;;;5122233;28;9989;-79
2023/09/28 01:24:39;;;;;;;;;7.25;5.75;;;;;;;;5136104;27;8788;-79
2023/09/28 01:27:06;;;;;;;;;8.00;7.00;;;;;;;;5145492;27;9572;-79
2023/09/28 01:29:31;;;;;;;;;7.67;6.33;;;;;;;;5145737;27;9163;-79
2023/09/28 01:31:56;;;;;;;;;5.00;5.00;;;;;;;;5138059;27;9636;-79
2023/09/28 01:34:23;;;;;;;;;5.50;4.25;;;;;;;;5124196;27;8836;-79
2023/09/28 01:36:48;;;;;;;;;7.25;5.75;;;;;;;;5133658;27;9652;-79
2023/09/28 01:39:13;;;;;;;;;4.75;4.75;;;;;;;;5125432;27;8797;-79
2023/09/28 01:41:38;;;;;;;;;5.75;5.50;;;;;;;;5103734;28;9589;-79
2023/09/28 01:44:04;;;;;;;;;4.00;4.00;;;;;;;;5120868;27;8841;-79
2023/09/28 01:46:29;;;;;;;;;4.00;3.00;;;;;;;;5123401;28;8923;-79
2023/09/28 01:48:54;;;;;;;;;5.00;4.50;;;;;;;;5123736;28;8816;-79
2023/09/28 01:51:19;;;;;;;;;5.50;4.00;;;;;;;;5111683;27;8828;-79
2023/09/28 01:53:46;;;;;;;;;7.25;4.25;;;;;;;;5144915;27;8839;-79
2023/09/28 01:56:11;;;;;;;;;4.00;4.00;;;;;;;;5144769;27;8725;-79
2023/09/28 01:58:36;;;;;;;;;2.33;2.00;;;;;;;;5137508;27;9584;-79
2023/09/28 02:01:02;;;;;;;;;8.50;6.50;;;;;;;;5130142;27;8817;-79
2023/09/28 02:03:28;;;;;;;;;3.50;3.50;;;;;;;;5119731;27;8915;-79
2023/09/28 02:05:53;;;;;;;;;4.75;4.75;;;;;;;;5142071;27;8765;-79
2023/09/28 02:08:19;;;;;;;;;6.00;5.00;;;;;;;;5142527;27;9557;-79
2023/09/28 02:10:45;;;;;;;;;4.00;4.00;;;;;;;;5142750;27;10018;-79
2023/09/28 02:13:11;;;;;;;;;9.25;6.25;;;;;;;;5125320;27;8801;-79
2023/09/28 02:15:37;;;;;;;;;8.75;4.00;;;;;;;;5137530;27;10495;-79
2023/09/28 02:18:03;;;;;;;;;4.00;4.00;;;;;;;;5125613;27;8802;-79
2023/09/28 02:20:30;;;;;;;;;6.50;5.50;;;;;;;;5141086;27;11392;-79
2023/09/28 02:22:55;;;;;;;;;5.00;2.33;;;;;;;;5123981;27;11387;-79
2023/09/28 02:25:21;;;;;;;;;4.50;3.00;;;;;;;;5121970;28;9541;-79
2023/09/28 02:27:47;;;;;;;;;7.50;3.25;;;;;;;;5129185;27;8745;-79
2023/09/28 02:30:14;;;;;;;;;5.50;5.50;;;;;;;;5142235;27;10055;-79
2023/09/28 02:32:40;;;;;;;;;3.33;3.33;;;;;;;;5124958;27;8864;-79
2023/09/28 02:35:07;;;;;;;;;7.50;6.50;;;;;;;;5130496;27;9586;-79
2023/09/28 02:37:33;;;;;;;;;4.00;3.00;;;;;;;;5131083;27;8752;-79
2023/09/28 02:39:58;;;;;;;;;4.67;4.00;;;;;;;;5123340;27;9749;-80
2023/09/28 02:42:23;;;;;;;;;3.67;3.67;;;;;;;;5132916;27;9391;-79
2023/09/28 02:44:49;;;;;;;;;5.33;3.67;;;;;;;;5135992;27;8798;-79
2023/09/28 02:47:14;;;;;;;;;4.00;4.00;;;;;;;;5126050;27;8827;-79
2023/09/28 02:49:39;;;;;;;;;3.33;2.67;;;;;;;;5124412;28;8840;-79
2023/09/28 02:52:06;;;;;;;;;6.00;4.00;;;;;;;;5127108;27;8849;-79
2023/09/28 02:54:32;;;;;;;;;8.00;4.00;;;;;;;;5126615;27;8819;-79
2023/09/28 02:56:57;;;;;;;;;5.00;4.00;;;;;;;;5129908;27;9405;-79
2023/09/28 02:59:23;;;;;;;;;6.50;4.50;;;;;;;;5143172;27;10030;-79
2023/09/28 03:01:48;;;;;;;;;4.00;3.00;;;;;;;;5145145;27;8812;-78
2023/09/28 03:04:15;;;;;;;;;5.00;5.00;;;;;;;;5135769;27;8876;-78
2023/09/28 03:06:40;;;;;;;;;5.00;4.00;;;;;;;;5124485;27;8912;-79
2023/09/28 03:09:08;;;;;;;;;8.00;4.00;;;;;;;;5128800;27;10062;-79
2023/09/28 03:11:34;;;;;;;;;3.67;3.00;;;;;;;;5132836;27;8749;-79
2023/09/28 03:13:59;;;;;;;;;3.67;3.67;;;;;;;;5141702;27;9513;-79
2023/09/28 03:16:24;;;;;;;;;5.33;2.67;;;;;;;;5123309;27;8915;-79
2023/09/28 03:18:49;;;;;;;;;5.00;3.00;;;;;;;;5124192;27;8790;-79
2023/09/28 03:21:15;;;;;;;;;1.33;1.00;;;;;;;;5123292;27;8918;-79
2023/09/28 03:23:40;;;;;;;;;3.33;2.67;;;;;;;;5129323;27;8796;-79
2023/09/28 03:26:06;;;;;;;;;2.67;2.67;;;;;;;;5128623;27;8843;-79
2023/09/28 03:28:31;;;;;;;;;4.00;1.00;;;;;;;;5142208;27;10081;-79
2023/09/28 03:30:56;;;;;;;;;3.00;1.00;;;;;;;;5140924;27;8824;-79
2023/09/28 03:33:21;;;;;;;;;2.00;2.00;;;;;;;;5133441;27;8809;-79
2023/09/28 03:35:47;;;;;;;;;3.67;2.00;;;;;;;;5132297;27;8862;-79
2023/09/28 03:38:12;;;;;;;;;4.67;2.00;;;;;;;;5127496;27;8800;-79
2023/09/28 03:40:37;;;;;;;;;1.00;1.00;;;;;;;;5122639;27;8934;-79
2023/09/28 03:43:03;;;;;;;;;4.00;2.00;;;;;;;;5143198;27;8832;-79
2023/09/28 03:45:28;;;;;;;;;5.00;1.33;;;;;;;;5134018;27;9709;-79
2023/09/28 03:47:54;;;;;;;;;6.00;2.00;;;;;;;;5123251;28;8867;-79
2023/09/28 03:50:20;;;;;;;;;1.25;1.00;;;;;;;;5127323;27;8789;-79
2023/09/28 03:52:45;;;;;;;;;2.67;1.00;;;;;;;;5143111;27;8933;-79
2023/09/28 03:55:10;;;;;;;;;1.00;0.00;;;;;;;;5143220;27;10179;-79
2023/09/28 03:57:36;;;;;;;;;2.00;2.00;;;;;;;;5132302;27;8835;-79
2023/09/28 04:00:02;;;;;;;;;2.33;1.67;;;;;;;;5125971;27;8893;-79
2023/09/28 04:02:27;;;;;;;;;6.00;1.00;;;;;;;;5135263;27;8833;-79
2023/09/28 04:04:53;;;;;;;;;2.67;1.33;;;;;;;;5103739;27;9460;-79
2023/09/28 04:07:18;;;;;;;;;0.00;0.00;;;;;;;;5125644;27;8857;-79
2023/09/28 04:09:43;;;;;;;;;2.33;1.67;;;;;;;;5127661;27;8800;-79
2023/09/28 04:12:08;;;;;;;;;4.25;1.00;;;;;;;;5122818;27;8843;-79
2023/09/28 04:14:33;;;;;;;;;2.25;1.00;;;;;;;;5122958;28;8823;-79
2023/09/28 04:16:59;;;;;;;;;1.33;1.00;;;;;;;;5122855;27;8834;-79
2023/09/28 04:19:24;;;;;;;;;2.00;2.00;;;;;;;;5125518;27;8841;-79
2023/09/28 04:21:49;;;;;;;;;4.33;2.00;;;;;;;;5134950;27;8843;-79
2023/09/28 04:24:15;;;;;;;;;0.00;0.00;;;;;;;;5140661;27;8828;-79
2023/09/28 04:26:40;;;;;;;;;1.33;0.33;;;;;;;;5138998;27;8923;-79
2023/09/28 04:29:05;;;;;;;;;3.25;2.25;;;;;;;;5122676;27;8801;-79
2023/09/28 04:31:31;;;;;;;;;4.67;1.67;;;;;;;;5120836;27;9659;-79
2023/09/28 04:33:57;;;;;;;;;5.75;2.00;;;;;;;;5120755;27;9115;-79
2023/09/28 04:36:24;;;;;;;;;7.00;1.00;;;;;;;;5132507;27;10252;-79
2023/09/28 04:38:54;;;;;;;;;2.33;1.00;;;;;;;;5131325;27;9340;-79
2023/09/28 04:41:19;;;;;;;;;2.00;1.75;;;;;;;;5140036;27;10562;-79
2023/09/28 04:43:45;;;;;;;;;3.67;2.00;;;;;;;;5125803;27;9598;-79
2023/09/28 04:46:10;;;;;;;;;3.00;1.00;;;;;;;;5121174;27;9981;-79
2023/09/28 04:48:35;;;;;;;;;4.33;2.00;;;;;;;;5128233;27;8817;-79
2023/09/28 04:51:01;;;;;;;;;4.25;1.00;;;;;;;;5123533;27;8835;-80
2023/09/28 04:53:26;;;;;;;;;3.00;1.50;;;;;;;;5121966;27;8818;-79
2023/09/28 04:55:52;;;;;;;;;2.00;1.00;;;;;;;;5121207;28;10407;-80
2023/09/28 04:58:17;;;;;;;;;2.25;1.00;;;;;;;;5137253;27;8955;-79
2023/09/28 05:00:42;;;;;;;;;5.25;2.00;;;;;;;;5133503;27;8825;-80
2023/09/28 05:03:07;;;;;;;;;2.25;0.75;;;;;;;;5125538;27;8876;-80
2023/09/28 05:05:33;;;;;;;;;0.00;0.00;;;;;;;;5140235;27;9865;-80
2023/09/28 05:07:58;;;;;;;;;5.75;2.50;;;;;;;;5140091;27;8843;-79
2023/09/28 05:10:24;;;;;;;;;2.00;1.00;;;;;;;;5123206;27;8805;-81
2023/09/28 05:12:49;;;;;;;;;1.00;1.00;;;;;;;;5131269;27;8827;-75
2023/09/28 05:15:15;;;;;;;;;5.25;1.25;;;;;;;;5125044;27;8815;-78
2023/09/28 05:17:40;;;;;;;;;4.25;3.00;;;;;;;;5125614;28;8772;-76
2023/09/28 05:20:06;;;;;;;;;3.50;2.00;;;;;;;;5126741;27;9563;-77
2023/09/28 05:22:31;;;;;;;;;2.75;1.00;;;;;;;;5130667;27;8816;-76
2023/09/28 05:24:56;;;;;;;;;2.50;2.00;;;;;;;;5135856;27;10096;-76
2023/09/28 05:27:22;;;;;;;;;2.00;1.25;;;;;;;;5128932;27;8815;-80
2023/09/28 05:29:47;;;;;;;;;1.00;1.00;;;;;;;;5124779;27;8808;-79
2023/09/28 05:32:12;;;;;;;;;0.00;0.00;;;;;;;;5133348;27;8836;-78
2023/09/28 05:34:38;;;;;;;;;3.00;0.25;;;;;;;;5143826;27;8925;-77
2023/09/28 05:37:03;;;;;;;;;2.50;2.00;;;;;;;;5125206;27;8807;-78
2023/09/28 05:39:28;;;;;;;;;2.00;1.00;;;;;;;;5126175;27;8855;-79
2023/09/28 05:41:53;;;;;;;;;5.75;2.00;;;;;;;;5134303;27;8792;-78
2023/09/28 05:44:19;;;;;;;;;1.75;0.50;;;;;;;;5146421;27;8824;-79
2023/09/28 05:46:44;;;;;;;;;1.75;1.75;;;;;;;;5125878;27;8817;-79
2023/09/28 05:49:09;;;;;;;;;4.00;2.00;;;;;;;;5125691;27;8824;-76
2023/09/28 05:51:34;;;;;;;;;0.67;0.67;;;;;;;;5130024;27;8807;-79
2023/09/28 05:54:00;;;;;;;;;4.75;2.00;;;;;;;;5123323;27;9968;-77
2023/09/28 05:56:25;;;;;;;;;3.75;1.50;;;;;;;;5123145;27;8807;-79
2023/09/28 05:58:50;;;;;;;;;4.00;2.00;;;;;;;;5124321;27;8815;-78
2023/09/28 06:01:17;;;;;;;;;1.50;1.25;;;;;;;;5130696;27;8793;-78
2023/09/28 06:03:43;;;;;;;;;3.00;1.00;;;;;;;;5124908;27;8922;-79
2023/09/28 06:06:15;;;;;;;;;2.50;1.75;;;;;;;;5131329;27;9548;-79
2023/09/28 06:08:41;;;;;;;;;4.25;3.00;;;;;;;;5128864;27;9912;-77
2023/09/28 06:11:09;;;;;;;;;3.75;2.75;;;;;;;;5133316;27;10004;-79
2023/09/28 06:13:34;;;;;;;;;3.50;1.50;;;;;;;;5124276;27;8747;-78
2023/09/28 06:16:00;;;;;;;;;3.25;2.00;;;;;;;;5122892;27;9821;-77
2023/09/28 06:18:25;;;;;;;;;2.00;1.00;;;;;;;;5124791;27;8805;-77
2023/09/28 06:20:51;;;;;;;;;5.75;2.75;;;;;;;;5127592;27;8803;-77
2023/09/28 06:23:17;;;;;;;;;4.25;3.00;;;;;;;;5102568;28;9879;-77
2023/09/28 06:25:44;;;;;;;;;6.00;2.50;;;;;;;;5115135;27;8785;-77
2023/09/28 06:28:09;;;;;;;;;3.25;3.00;;;;;;;;5124223;27;8753;-77
2023/09/28 06:30:34;;;;;;;;;1.25;1.25;;;;;;;;5128154;27;10019;-77
2023/09/28 06:32:59;;;;;;;;;5.00;3.25;;;;;;;;5137415;27;8889;-76
2023/09/28 06:35:24;;;;;;;;;6.00;3.25;;;;;;;;5126113;27;8836;-78
2023/09/28 06:37:50;;;;;;;;;2.75;1.50;;;;;;;;5127290;27;8820;-77
2023/09/28 06:40:15;;;;;;;;;8.00;3.00;;;;;;;;5144651;27;8777;-77
2023/09/28 06:42:40;;;;;;;;;4.00;2.00;;;;;;;;5123845;27;8831;-78
2023/09/28 06:45:07;;;;;;;;;3.00;1.75;;;;;;;;5122808;27;8810;-77
2023/09/28 06:47:32;;;;;;;;;4.00;2.75;;;;;;;;5104119;28;8777;-78
2023/09/28 06:49:57;;;;;;;;;4.00;2.00;;;;;;;;5124162;27;9981;-79
2023/09/28 06:52:22;;;;;;;;;4.25;1.50;;;;;;;;5122122;27;8803;-78
2023/09/28 06:54:49;;;;;;;;;12.50;3.50;;;;;;;;5121927;27;8823;-78
2023/09/28 06:57:14;;;;;;;;;4.00;3.00;;;;;;;;5124013;27;9568;-77
2023/09/28 06:59:39;;;;;;;;;2.25;1.25;;;;;;;;5124871;27;8889;-77
2023/09/28 07:02:04;;;;;;;;;2.00;1.75;;;;;;;;5139269;27;8804;-77
2023/09/28 07:04:30;;;;;;;;;1.00;1.00;;;;;;;;5128366;27;8927;-77
2023/09/28 07:06:55;;;;;;;;;4.50;2.00;;;;;;;;5143914;27;8875;-77
2023/09/28 07:09:20;;;;;;;;;2.33;1.00;;;;;;;;5129395;27;8837;-77
2023/09/28 07:11:47;;;;;;;;;3.25;1.50;;;;;;;;5122594;27;8812;-77
2023/09/28 07:14:12;;;;;;;;;5.75;2.00;;;;;;;;5129422;27;8827;-77
2023/09/28 07:16:38;;;;;;;;;1.25;1.00;;;;;;;;5125887;27;9716;-77
2023/09/28 07:19:05;;;;;;;;;4.75;1.75;;;;;;;;5123687;27;8911;-75
2023/09/28 07:21:30;;;;;;;;;6.50;2.75;;;;;;;;5129296;27;8737;-78
2023/09/28 07:23:55;;;;;;;;;8.25;1.00;;;;;;;;5123153;27;9719;-77
2023/09/28 07:26:21;;;;;;;;;2.33;1.33;;;;;;;;5122768;27;8821;-77
2023/09/28 07:28:46;;;;;;;;;4.50;2.50;;;;;;;;5142019;27;8804;-77
2023/09/28 07:31:13;;;;;;;;;1.75;1.75;;;;;;;;5114244;27;8801;-77
2023/09/28 07:33:39;;;;;;;;;2.67;1.00;;;;;;;;5103279;28;8933;-77
2023/09/28 07:36:05;;;;;;;;;2.50;0.25;;;;;;;;5104405;28;9541;-77
2023/09/28 07:38:32;;;;;;;;;3.50;1.75;;;;;;;;5123514;27;9579;-77
2023/09/28 07:40:58;;;;;;;;;2.75;2.75;;;;;;;;5142657;27;9628;-77
2023/09/28 07:43:24;;;;;;;;;6.00;2.50;;;;;;;;5139573;27;10225;-77
2023/09/28 07:45:49;;;;;;;;;4.50;2.50;;;;;;;;5123624;27;8823;-76
2023/09/28 07:48:15;;;;;;;;;1.00;1.00;;;;;;;;5122786;27;8808;-77
2023/09/28 07:50:40;;;;;;;;;4.25;1.75;;;;;;;;5123526;27;8777;-77
2023/09/28 07:53:06;;;;;;;;;7.75;2.00;;;;;;;;5121808;28;8812;-77
2023/09/28 07:55:31;;;;;;;;;5.00;2.00;;;;;;;;5125186;27;8825;-77
2023/09/28 07:57:58;;;;;;;;;2.50;2.00;;;;;;;;5128778;27;8813;-77
2023/09/28 08:00:23;;;;;;;;;2.00;1.33;;;;;;;;5132082;27;8781;-77
2023/09/28 08:02:48;;;;;;;;;3.67;2.00;;;;;;;;5123533;27;9441;-77
2023/09/28 08:05:14;;;;;;;;;2.75;2.00;;;;;;;;5121696;27;9436;-78
2023/09/28 08:07:39;;;;;;;;;2.75;2.00;;;;;;;;5123704;27;8853;-77
2023/09/28 08:10:04;;;;;;;;;3.00;1.00;;;;;;;;5122911;28;8816;-77
2023/09/28 08:12:30;;;;;;;;;4.00;1.00;;;;;;;;5122149;27;8800;-77
2023/09/28 08:14:55;;;;;;;;;3.25;1.00;;;;;;;;5123195;28;8769;-77
2023/09/28 08:17:20;;;;;;;;;3.00;0.67;;;;;;;;5121776;27;9707;-76
2023/09/28 08:19:46;;;;;;;;;6.00;4.50;;;;;;;;5128059;27;8873;-77
2023/09/28 08:22:11;;;;;;;;;3.33;1.00;;;;;;;;5109170;27;8848;-77
2023/09/28 08:24:37;;;;;;;;;2.25;1.25;;;;;;;;5102226;28;8813;-76
2023/09/28 08:27:04;;;;;;;;;3.00;3.00;;;;;;;;5104707;28;8781;-76
2023/09/28 08:29:29;;;;;;;;;5.00;3.00;;;;;;;;5108835;27;10053;-77
2023/09/28 08:31:54;;;;;;;;;7.00;4.00;;;;;;;;5125557;28;9290;-77
2023/09/28 08:34:20;;;;;;;;;1.25;1.25;;;;;;;;5125190;28;8788;-77
2023/09/28 08:36:45;;;;;;;;;6.25;2.00;;;;;;;;5126846;27;8776;-76
2023/09/28 08:39:10;;;;;;;;;2.67;1.33;;;;;;;;5125006;28;9921;-76
2023/09/28 08:41:39;;;;;;;;;3.00;2.00;;;;;;;;5124281;28;8959;-77
2023/09/28 08:44:05;;;;;;;;;6.67;1.33;;;;;;;;5126817;27;8845;-77
2023/09/28 08:46:33;;;;;;;;;3.50;0.00;;;;;;;;5126415;27;9476;-77
2023/09/28 08:49:01;;;;;;;;;1.67;0.67;;;;;;;;5126665;27;9360;-77
2023/09/28 08:51:27;;;;;;;;;4.00;2.00;;;;;;;;5126536;27;9405;-77
2023/09/28 08:53:52;;;;;;;;;1.00;1.00;;;;;;;;5126572;28;9464;-77
2023/09/28 08:56:18;;;;;;;;;4.33;3.00;;;;;;;;5124965;27;9592;-77
2023/09/28 08:58:45;;;;;;;;;4.00;1.50;;;;;;;;5125996;28;8789;-77
2023/09/28 09:01:10;;;;;;;;;3.67;2.00;;;;;;;;5126309;27;8789;-77
2023/09/28 09:03:38;;;;;;;;;2.00;1.00;;;;;;;;5126242;27;9420;-77
2023/09/28 09:06:06;;;;;;;;;3.67;2.33;;;;;;;;5126403;27;8740;-77
2023/09/28 09:08:34;;;;;;;;;2.33;0.00;;;;;;;;5125927;27;9689;-77
2023/09/28 09:11:00;;;;;;;;;3.00;1.00;;;;;;;;5125226;28;9385;-77
2023/09/28 09:13:26;;;;;;;;;1.33;1.33;;;;;;;;5124876;28;9270;-77
2023/09/28 09:15:52;;;;;;;;;4.00;3.00;;;;;;;;5125961;27;11493;-77
2023/09/28 09:18:21;;;;;;;;;2.67;1.67;;;;;;;;5126212;27;9777;-77
2023/09/28 09:20:47;;;;;;;;;2.00;1.67;;;;;;;;5125596;27;9296;-77
2023/09/28 09:23:16;;;;;;;;;3.67;1.67;;;;;;;;5124608;28;9290;-77
2023/09/28 09:25:42;;;;;;;;;1.33;1.00;;;;;;;;5124179;28;8809;-77
2023/09/28 09:28:07;;;;;;;;;2.67;0.00;;;;;;;;5125992;27;9409;-77
2023/09/28 09:30:35;;;;;;;;;4.00;2.00;;;;;;;;5126007;28;9363;-77
2023/09/28 09:33:00;;;;;;;;;3.33;2.00;;;;;;;;5125623;28;8775;-77
2023/09/28 09:35:27;;;;;;;;;3.00;2.00;;;;;;;;5123909;28;9436;-77
2023/09/28 09:37:55;;;;;;;;;6.33;2.00;;;;;;;;5125599;27;8964;-77
2023/09/28 09:40:21;;;;;;;;;3.00;1.67;;;;;;;;5139605;27;9118;-77
2023/09/28 09:42:46;;;;;;;;;5.00;2.00;;;;;;;;5145888;27;9378;-77
2023/09/28 09:45:12;;;;;;;;;3.33;2.00;;;;;;;;5146362;27;8903;-77
2023/09/28 09:47:42;;;;;;;;;4.00;2.00;;;;;;;;5146316;27;8887;-77
2023/09/28 09:50:08;;;;;;;;;1.67;1.67;;;;;;;;5146234;27;8741;-77
2023/09/28 09:52:34;;;;;;;;;3.67;2.00;;;;;;;;5145909;27;9338;-77
2023/09/28 09:54:59;;;;;;;;;2.33;1.00;;;;;;;;5142923;27;8920;-76
2023/09/28 09:57:27;;;;;;;;;3.00;2.00;;;;;;;;5144418;27;10201;-77
2023/09/28 09:59:53;;;;;;;;;1.00;1.00;;;;;;;;5145363;27;8753;-77
2023/09/28 10:02:25;;;;;;;;;4.67;2.00;;;;;;;;5145803;27;9047;-77
2023/09/28 10:04:57;;;;;;;;;2.33;1.67;;;;;;;;5145723;27;8838;-77
2023/09/28 10:07:25;;;;;;;;;3.00;0.00;;;;;;;;5145295;27;9382;-76
2023/09/28 10:09:51;;;;;;;;;3.00;1.00;;;;;;;;5145193;27;9259;-76
2023/09/28 10:12:18;;;;;;;;;4.33;1.00;;;;;;;;5144464;27;9151;-77
2023/09/28 10:14:44;;;;;;;;;4.67;1.33;;;;;;;;5145844;27;9159;-77
2023/09/28 10:17:10;;;;;;;;;4.67;1.33;;;;;;;;5145617;27;9534;-77
2023/09/28 10:19:38;;;;;;;;;1.67;1.67;;;;;;;;5145758;27;8769;-76
2023/09/28 10:22:03;;;;;;;;;1.00;1.00;;;;;;;;5127891;27;9239;-76
2023/09/28 10:24:30;;;;;;;;;1.00;1.00;;;;;;;;5122748;28;9275;-76
2023/09/28 10:26:56;;;;;;;;;1.33;1.00;;;;;;;;5124864;28;8755;-76
2023/09/28 10:29:23;;;;;;;;;0.67;0.67;;;;;;;;5124856;28;9132;-77
2023/09/28 10:31:51;;;;;;;;;2.00;1.00;;;;;;;;5124954;27;8801;-77
2023/09/28 10:34:19;;;;;;;;;2.67;1.67;;;;;;;;5123447;28;9229;-77
2023/09/28 10:37:04;;;;;;;;;1.00;1.00;;;;;;;;5124493;27;9115;-77
2023/09/28 10:39:31;;;;;;;;;2.00;1.00;;;;;;;;5124452;28;8945;-77
2023/09/28 10:42:03;;;;;;;;;0.67;0.67;;;;;;;;5139922;27;9155;-77
2023/09/28 10:44:31;;;;;;;;;3.33;1.00;;;;;;;;5145303;27;9154;-77
2023/09/28 10:46:56;;;;;;;;;1.00;1.00;;;;;;;;5144150;27;9168;-77
2023/09/28 10:49:23;;;;;;;;;1.33;1.33;;;;;;;;5143800;27;10035;-77
2023/09/28 10:51:48;;;;;;;;;3.00;1.00;;;;;;;;5144811;27;8733;-77
2023/09/28 10:54:14;;;;;;;;;5.00;2.00;;;;;;;;5144711;27;9229;-77
2023/09/28 10:56:39;;;;;;;;;1.67;1.67;;;;;;;;5143239;27;10063;-77
2023/09/28 10:59:05;;;;;;;;;0.67;0.67;;;;;;;;5144905;27;8911;-77
2023/09/28 11:01:31;;;;;;;;;2.00;2.00;;;;;;;;5145103;27;8772;-77
2023/09/28 11:03:56;;;;;;;;;1.67;1.00;;;;;;;;5145169;27;9194;-77
2023/09/28 11:06:22;;;;;;;;;3.00;0.67;;;;;;;;5144377;27;9575;-77
2023/09/28 11:08:48;;;;;;;;;3.00;1.00;;;;;;;;5134594;27;8828;-77
2023/09/28 11:11:14;;;;;;;;;0.67;0.67;;;;;;;;5123561;27;8769;-77
2023/09/28 11:13:40;;;;;;;;;3.00;1.67;;;;;;;;5131474;27;8989;-77
2023/09/28 11:16:05;;;;;;;;;3.00;1.33;;;;;;;;5143401;27;10132;-77
2023/09/28 11:18:31;;;;;;;;;0.67;0.67;;;;;;;;5144491;27;8879;-77
2023/09/28 11:20:58;;;;;;;;;2.00;2.00;;;;;;;;5134753;27;8791;-77
2023/09/28 11:23:24;;;;;;;;;0.67;0.67;;;;;;;;5122958;28;8747;-77
2023/09/28 11:25:49;;;;;;;;;1.67;0.67;;;;;;;;5122473;28;9244;-77
2023/09/28 11:28:14;;;;;;;;;1.67;0.67;;;;;;;;5122458;28;8829;-77
2023/09/28 11:30:39;;;;;;;;;2.67;1.00;;;;;;;;5124017;28;8818;-77
2023/09/28 11:33:05;;;;;;;;;3.00;2.67;;;;;;;;5140583;27;8829;-77
2023/09/28 11:35:31;;;;;;;;;3.00;1.00;;;;;;;;5143785;27;8879;-77
2023/09/28 11:38:09;;;;;;;;;2.33;1.33;;;;;;;;5144057;27;8768;-77
2023/09/28 11:40:35;;;;;;;;;2.00;1.00;;;;;;;;5103150;28;8785;-77
2023/09/28 11:43:00;;;;;;;;;0.00;0.00;;;;;;;;5101856;28;8808;-77
2023/09/28 11:45:29;;;;;;;;;1.67;1.67;;;;;;;;5103122;28;9001;-77
2023/09/28 11:47:54;;;;;;;;;1.25;1.00;;;;;;;;5106267;27;8738;-77
2023/09/28 11:50:21;;;;;;;;;0.00;0.00;;;;;;;;5143883;27;8784;-77
2023/09/28 11:52:47;;;;;;;;;8.00;1.00;;;;;;;;5144177;27;8797;-77
2023/09/28 11:55:14;;;;;;;;;3.00;1.00;;;;;;;;5143336;27;8944;-76
2023/09/28 11:57:41;;;;;;;;;1.00;1.00;;;;;;;;5136460;27;8954;-77
2023/09/28 12:00:14;;;;;;;;;4.33;1.67;;;;;;;;5124511;27;8891;-78
2023/09/28 12:02:39;;;;;;;;;1.67;1.00;;;;;;;;5121002;27;8888;-76
2023/09/28 12:05:07;;;;;;;;;2.00;1.00;;;;;;;;5122859;28;9121;-76
2023/09/28 12:07:32;;;;;;;;;1.67;0.67;;;;;;;;5123210;27;8767;-80
2023/09/28 12:09:58;;;;;;;;;0.67;0.67;;;;;;;;5121746;28;9573;-84
2023/09/28 12:12:23;;;;;;;;;2.33;0.67;;;;;;;;5141632;27;8877;-82
2023/09/28 12:14:48;;;;;;;;;0.00;0.00;;;;;;;;5143770;27;8800;-80
2023/09/28 12:17:14;;;;;;;;;1.00;0.00;;;;;;;;5126592;27;8785;-78
2023/09/28 12:19:40;;;;;;;;;1.33;0.67;;;;;;;;5125725;27;8911;-77
2023/09/28 12:22:07;;;;;;;;;0.33;0.33;;;;;;;;5124221;27;10560;-79
2023/09/28 12:24:32;;;;;;;;;4.00;1.67;;;;;;;;5123039;27;8774;-77
2023/09/28 12:26:59;;;;;;;;;1.67;1.67;;;;;;;;5122266;27;8989;-77
2023/09/28 12:29:24;;;;;;;;;2.00;1.00;;;;;;;;5123277;27;8826;-76
2023/09/28 12:31:49;;;;;;;;;8.67;2.67;;;;;;;;5132985;27;8921;-78
2023/09/28 12:34:15;;;;;;;;;4.33;0.67;;;;;;;;5123832;27;8801;-77
2023/09/28 12:36:41;;;;;;;;;0.67;0.67;;;;;;;;5130887;27;8823;-77
2023/09/28 12:39:10;;;;;;;;;0.00;0.00;;;;;;;;5141842;27;8798;-76
2023/09/28 12:41:35;;;;;;;;;3.00;1.00;;;;;;;;5135445;27;8789;-75
2023/09/28 12:44:01;;;;;;;;;2.00;1.00;;;;;;;;5121726;27;10336;-78
2023/09/28 12:46:26;;;;;;;;;1.67;1.00;;;;;;;;5143257;27;9571;-78
2023/09/28 12:48:52;;;;;;;;;4.33;0.00;;;;;;;;5124910;27;8827;-79
2023/09/28 12:51:18;;;;;;;;;0.00;0.00;;;;;;;;5125011;27;8755;-77
2023/09/28 12:53:43;;;;;;;;;3.33;1.00;;;;;;;;5130120;27;11008;-78
2023/09/28 12:56:09;;;;;;;;;0.67;0.67;;;;;;;;5141803;27;8816;-77
2023/09/28 12:58:34;;;;;;;;;2.00;0.67;;;;;;;;5143613;27;8895;-82
2023/09/28 13:01:00;;;;;;;;;2.67;0.67;;;;;;;;5142636;27;11465;-78
2023/09/28 13:03:25;;;;;;;;;0.67;0.67;;;;;;;;5131359;27;8835;-80
2023/09/28 13:05:51;;;;;;;;;2.00;1.00;;;;;;;;5115830;27;8815;-78
2023/09/28 13:08:16;;;;;;;;;1.33;0.00;;;;;;;;5128347;27;8859;-78
2023/09/28 13:10:42;;;;;;;;;0.00;0.00;;;;;;;;5128851;27;8802;-78
2023/09/28 13:13:08;;;;;;;;;1.25;1.25;;;;;;;;5125084;27;8795;-78
2023/09/28 13:15:33;;;;;;;;;2.33;0.00;;;;;;;;5125582;27;8900;-78
2023/09/28 13:18:00;;;;;;;;;2.00;0.00;;;;;;;;5126030;27;8783;-78
2023/09/28 13:20:27;;;;;;;;;1.00;0.25;;;;;;;;5131496;27;8775;-78
2023/09/28 13:22:54;;;;;;;;;4.25;0.50;;;;;;;;5124137;28;10385;-78
2023/09/28 13:25:25;;;;;;;;;0.25;0.25;;;;;;;;5141124;27;8733;-78
2023/09/28 13:27:51;;;;;;;;;2.50;0.00;;;;;;;;5146403;27;8889;-78
2023/09/28 13:30:19;;;;;;;;;3.67;0.67;;;;;;;;5124113;27;9559;-78
2023/09/28 13:32:45;;;;;;;;;1.00;1.00;;;;;;;;5132064;27;8785;-78
2023/09/28 13:35:11;;;;;;;;;0.00;0.00;;;;;;;;5144940;27;8973;-78
2023/09/28 13:37:37;;;;;;;;;0.00;0.00;;;;;;;;5146719;27;8717;-78
2023/09/28 13:40:03;;;;;;;;;3.67;1.00;;;;;;;;5145890;27;8780;-78
2023/09/28 13:42:28;;;;;;;;;0.00;0.00;;;;;;;;5141915;27;8781;-78
2023/09/28 13:44:54;;;;;;;;;5.00;1.33;;;;;;;;5125275;28;8799;-78
2023/09/28 13:47:19;;;;;;;;;2.00;0.67;;;;;;;;5142870;27;8835;-78
2023/09/28 13:49:44;;;;;;;;;3.00;0.00;;;;;;;;5142387;27;8820;-79
2023/09/28 13:52:10;;;;;;;;;1.00;1.00;;;;;;;;5125105;28;8777;-78
2023/09/28 13:54:36;;;;;;;;;0.00;0.00;;;;;;;;5124635;27;8792;-78
2023/09/28 13:57:07;;;;;;;;;4.00;0.33;;;;;;;;5125423;27;8816;-78
2023/09/28 13:59:32;;;;;;;;;1.00;0.75;;;;;;;;5125101;27;8780;-78
2023/09/28 14:01:58;;;;;;;;;3.00;0.67;;;;;;;;5125312;28;8829;-78
2023/09/28 14:04:23;;;;;;;;;2.00;0.33;;;;;;;;5125282;27;8941;-78
2023/09/28 14:06:49;;;;;;;;;5.00;0.00;;;;;;;;5125232;27;9714;-78
2023/09/28 14:09:18;;;;;;;;;1.00;1.00;;;;;;;;5124981;28;8950;-78
2023/09/28 14:11:44;;;;;;;;;0.75;0.75;;;;;;;;5123017;28;10269;-77
2023/09/28 14:14:10;;;;;;;;;2.00;0.25;;;;;;;;5115054;27;8778;-78
2023/09/28 14:16:38;;;;;;;;;0.00;0.00;;;;;;;;5125060;28;8792;-78
2023/09/28 14:19:06;;;;;;;;;0.75;0.25;;;;;;;;5103458;28;8949;-78
2023/09/28 14:21:31;;;;;;;;;3.00;0.00;;;;;;;;5104605;28;8761;-78
2023/09/28 14:23:59;;;;;;;;;0.00;0.00;;;;;;;;5104549;28;8789;-78
2023/09/28 14:26:24;;;;;;;;;2.25;0.75;;;;;;;;5103243;28;8762;-78
2023/09/28 14:28:50;;;;;;;;;0.67;0.67;;;;;;;;5112704;27;8835;-78
2023/09/28 14:31:17;;;;;;;;;1.00;0.00;;;;;;;;5145300;27;8839;-78
2023/09/28 14:33:43;;;;;;;;;2.25;0.00;;;;;;;;5145458;27;8777;-78
2023/09/28 14:36:09;;;;;;;;;1.67;0.67;;;;;;;;5145818;27;9570;-78
2023/09/28 14:38:34;;;;;;;;;0.00;0.00;;;;;;;;5145454;27;8835;-78
2023/09/28 14:41:00;;;;;;;;;4.67;0.00;;;;;;;;5143154;27;10133;-78
2023/09/28 14:43:25;;;;;;;;;0.67;0.67;;;;;;;;5144443;27;8868;-78
2023/09/28 14:45:51;;;;;;;;;0.67;0.67;;;;;;;;5145248;27;8866;-78
2023/09/28 14:48:16;;;;;;;;;2.00;0.67;;;;;;;;5145376;27;8780;-78